Camborne, United Kingdom
Current Conditions -  °F | °C
As of 1:50 AM on Saturday 01 Nov 2014 (Local Time) from EGDR Reporting Station
Haze Haze  
Wind Chill: 13°   Ceiling: 500
Heat Index: 13°   Visibility: 6mi
Dew Point: 13°   Wind: 10mph
Humidity: 100%   Direction: 230°SW
Pressure: 29.94"   Gusts: NA
Location:  50.21°N, 5.3°W
Report Text: EGDR 010150Z 23009KT 9999 BR FEW003 BKN005 13/13 Q1014 YLO1
Loading
Personal Weather Stations






























Interactive Weather Map
Tropical Storm Tracking
New forecast layout! Learn more

10-Day Weather Forecast

Advertisements
Track Severe Weather on mobile